createdAt,value
2023-01-27T00:04:31.344Z,25.13
2023-01-27T00:09:53.109Z,24.83
2023-01-27T00:15:16.728Z,25.10
2023-01-27T00:20:57.029Z,24.60
2023-01-27T00:26:19.973Z,25.30
2023-01-27T00:32:00.200Z,26.17
2023-01-27T00:37:21.964Z,24.93
2023-01-27T00:42:44.095Z,25.67
2023-01-27T00:48:05.885Z,24.73
2023-01-27T00:53:27.636Z,23.53
2023-01-27T00:58:49.385Z,24.77
2023-01-27T01:04:11.212Z,30.57
2023-01-27T01:09:32.989Z,26.03
2023-01-27T01:14:54.746Z,26.00
2023-01-27T01:20:16.644Z,27.80
2023-01-27T01:25:38.573Z,26.73
2023-01-27T01:31:08.487Z,26.80
2023-01-27T01:36:30.383Z,28.07
2023-01-27T01:41:52.140Z,26.63
2023-01-27T01:47:17.925Z,23.13
2023-01-27T01:52:40.285Z,22.93
2023-01-27T01:58:02.945Z,25.87
2023-01-27T02:03:26.033Z,22.33
2023-01-27T02:08:50.550Z,20.43
2023-01-27T02:14:14.735Z,19.37
2023-01-27T02:20:03.292Z,19.83
2023-01-27T02:25:24.962Z,18.20
2023-01-27T02:30:46.737Z,17.67
2023-01-27T02:36:15.614Z,19.57
2023-01-27T02:41:40.829Z,20.53
2023-01-27T02:47:02.565Z,18.37
2023-01-27T02:52:25.326Z,16.03
2023-01-27T02:57:47.068Z,16.23
2023-01-27T03:03:08.831Z,16.23
2023-01-27T03:08:30.582Z,17.50
2023-01-27T03:13:52.290Z,18.67
2023-01-27T03:19:14.010Z,17.17
2023-01-27T03:24:38.005Z,17.13
2023-01-27T03:30:01.196Z,17.13
2023-01-27T03:35:34.364Z,18.67
2023-01-27T03:41:14.875Z,18.83
2023-01-27T03:46:36.688Z,20.67
2023-01-27T03:51:58.947Z,20.33
2023-01-27T03:57:20.643Z,18.70
2023-01-27T04:03:00.829Z,17.80
2023-01-27T04:08:22.643Z,17.97
2023-01-27T04:13:44.678Z,17.63
2023-01-27T04:19:08.883Z,21.57
2023-01-27T04:24:30.983Z,20.20
2023-01-27T04:29:53.264Z,20.43
2023-01-27T04:35:15.183Z,19.30
2023-01-27T04:40:37.048Z,21.30
2023-01-27T04:45:58.904Z,20.83
2023-01-27T04:51:20.736Z,20.77
2023-01-27T04:56:58.025Z,22.00
2023-01-27T05:02:19.758Z,24.47
2023-01-27T05:07:41.529Z,22.77
2023-01-27T05:13:03.280Z,25.87
2023-01-27T05:18:24.976Z,25.70
2023-01-27T05:23:46.849Z,26.97
2023-01-27T05:29:09.421Z,26.93
2023-01-27T05:34:31.160Z,26.40
2023-01-27T05:39:52.872Z,25.90
2023-01-27T05:45:15.091Z,25.77
2023-01-27T05:50:36.889Z,25.77
2023-01-27T05:55:58.706Z,27.67
2023-01-27T06:01:22.817Z,25.10
2023-01-27T06:06:44.532Z,29.53
2023-01-27T06:12:06.575Z,26.87
2023-01-27T06:17:28.353Z,20.47
2023-01-27T06:22:50.564Z,25.27
2023-01-27T06:28:27.878Z,22.93
2023-01-27T06:33:51.364Z,24.23
2023-01-27T06:39:13.188Z,28.47
2023-01-27T06:44:34.967Z,21.83
2023-01-27T06:49:56.659Z,28.17
2023-01-27T06:55:19.404Z,26.00
2023-01-27T07:00:41.646Z,24.33
2023-01-27T07:06:03.519Z,24.90
2023-01-27T07:11:25.359Z,26.73
2023-01-27T07:16:47.656Z,22.30
2023-01-27T07:22:09.383Z,27.77
2023-01-27T07:27:31.088Z,22.87
2023-01-27T07:32:54.494Z,25.17
2023-01-27T07:38:16.264Z,22.77
2023-01-27T07:43:37.971Z,23.73
2023-01-27T07:48:59.709Z,23.63
2023-01-27T07:54:21.508Z,20.67
2023-01-27T07:59:43.225Z,22.63
2023-01-27T08:05:05.189Z,19.60
2023-01-27T08:10:27.026Z,18.13
2023-01-27T08:15:55.660Z,18.23
2023-01-27T08:21:17.394Z,20.47
2023-01-27T08:26:39.143Z,21.93
2023-01-27T08:32:00.875Z,21.73
2023-01-27T08:37:22.583Z,20.43
2023-01-27T08:42:44.367Z,17.93
2023-01-27T08:48:06.810Z,21.57
2023-01-27T08:53:29.169Z,17.37
2023-01-27T08:58:52.388Z,18.00
2023-01-27T09:04:14.229Z,19.97
2023-01-27T09:09:35.942Z,19.47
2023-01-27T09:14:58.246Z,19.70
2023-01-27T09:20:20.126Z,21.10
2023-01-27T09:25:41.921Z,22.73
2023-01-27T09:31:03.743Z,25.50
2023-01-27T09:36:27.411Z,24.73
2023-01-27T09:42:02.861Z,25.73
2023-01-27T09:47:33.490Z,23.70
2023-01-27T09:53:17.745Z,27.60
2023-01-27T09:59:08.248Z,26.97
2023-01-27T10:04:49.976Z,27.53
2023-01-27T10:10:33.266Z,29.07
2023-01-27T10:16:19.458Z,29.07
2023-01-27T10:22:13.481Z,24.23
2023-01-27T10:27:43.206Z,25.00
2023-01-27T10:33:14.131Z,20.70
2023-01-27T10:38:38.870Z,24.13
2023-01-27T10:44:25.449Z,25.67
2023-01-27T10:49:53.666Z,23.90
2023-01-27T10:55:21.928Z,24.90
2023-01-27T11:06:35.376Z,23.23
2023-01-27T11:12:02.742Z,21.37
2023-01-27T11:17:32.062Z,21.47
2023-01-27T11:23:00.018Z,20.13
2023-01-27T11:28:21.660Z,20.97
2023-01-27T11:34:11.384Z,18.20
2023-01-27T11:39:33.847Z,17.10
2023-01-27T11:44:57.580Z,18.33
2023-01-27T11:50:21.934Z,17.77
2023-01-27T11:55:50.324Z,25.73
2023-01-27T12:01:19.962Z,18.37
2023-01-27T12:06:48.983Z,20.63
2023-01-27T12:12:14.971Z,17.87
2023-01-27T12:17:47.592Z,24.13
2023-01-27T12:23:32.078Z,22.30
2023-01-27T12:28:54.857Z,20.93
2023-01-27T12:34:34.000Z,19.17
2023-01-27T12:40:01.608Z,23.40
2023-01-27T12:45:26.866Z,23.67
2023-01-27T12:50:51.321Z,21.60
2023-01-27T12:56:16.427Z,22.80
2023-01-27T13:01:41.257Z,26.40
2023-01-27T13:07:02.951Z,21.47
2023-01-27T13:12:30.801Z,22.97
2023-01-27T13:17:54.932Z,22.50
2023-01-27T13:23:31.325Z,26.07
2023-01-27T13:29:15.484Z,21.90
2023-01-27T13:34:53.040Z,26.83
2023-01-27T13:40:22.518Z,26.20
2023-01-27T13:45:57.475Z,23.30
2023-01-27T13:51:25.255Z,30.60
2023-01-27T13:57:07.711Z,26.57
2023-01-27T14:03:07.547Z,27.20
2023-01-27T14:08:49.459Z,28.00
2023-01-27T14:14:37.296Z,24.57
2023-01-27T14:20:18.166Z,27.27
2023-01-27T14:26:01.592Z,28.80
2023-01-27T14:31:47.507Z,24.90
2023-01-27T14:37:34.203Z,26.00
2023-01-27T14:42:55.852Z,31.27
2023-01-27T14:48:23.666Z,20.53
2023-01-27T14:54:13.673Z,20.73
2023-01-27T14:59:44.299Z,17.03
2023-01-27T15:05:27.514Z,22.60
2023-01-27T15:11:25.293Z,21.03
2023-01-27T15:17:05.678Z,19.87
2023-01-27T15:22:51.982Z,18.13
2023-01-27T15:28:17.985Z,26.90
2023-01-27T15:33:53.438Z,24.03
2023-01-27T15:39:20.192Z,21.57
2023-01-27T15:45:01.589Z,19.30
2023-01-27T15:50:27.516Z,24.20
2023-01-27T15:55:53.366Z,19.47
2023-01-27T16:01:32.027Z,18.67
2023-01-27T16:07:02.953Z,25.20
2023-01-27T16:12:26.931Z,18.87
2023-01-27T16:18:06.888Z,18.70
2023-01-27T16:23:44.701Z,17.87
2023-01-27T16:29:29.558Z,21.97
2023-01-27T16:35:02.060Z,17.13
2023-01-27T16:40:24.491Z,19.80
2023-01-27T16:45:51.925Z,24.90
2023-01-27T16:51:18.639Z,21.33
2023-01-27T16:56:40.721Z,20.73
2023-01-27T17:02:19.642Z,18.03
2023-01-27T17:07:41.475Z,16.00
2023-01-27T17:13:03.275Z,17.97
2023-01-27T17:18:25.881Z,21.07
2023-01-27T17:23:49.330Z,20.53
2023-01-27T17:29:20.978Z,25.67
2023-01-27T17:34:42.816Z,17.33
2023-01-27T17:40:15.317Z,14.33
2023-01-27T17:45:37.925Z,20.20
2023-01-27T17:50:59.744Z,15.37
2023-01-27T17:56:27.044Z,19.17
2023-01-27T18:01:53.483Z,14.93
2023-01-27T18:07:15.636Z,14.13
2023-01-27T18:12:37.945Z,17.13
2023-01-27T18:18:19.916Z,16.07
2023-01-27T18:23:56.409Z,14.43
2023-01-27T18:29:37.337Z,18.37
2023-01-27T18:34:59.767Z,18.93
2023-01-27T18:40:30.361Z,17.90
2023-01-27T18:45:52.179Z,14.53
2023-01-27T18:51:15.507Z,16.03
2023-01-27T18:56:37.318Z,16.00
2023-01-27T19:02:00.292Z,13.03
2023-01-27T19:07:22.150Z,11.97
2023-01-27T19:12:44.045Z,14.67
2023-01-27T19:18:20.847Z,14.47
2023-01-27T19:23:44.455Z,12.27
2023-01-27T19:29:06.409Z,11.43
2023-01-27T19:34:28.161Z,11.87
2023-01-27T19:39:49.963Z,18.73
2023-01-27T19:45:14.913Z,13.70
2023-01-27T19:50:36.887Z,10.73
2023-01-27T19:55:59.197Z,12.17
2023-01-27T20:01:24.997Z,12.03
2023-01-27T20:06:46.861Z,10.37
2023-01-27T20:12:14.428Z,11.77
2023-01-27T20:17:37.762Z,14.57
2023-01-27T20:22:59.615Z,12.43
2023-01-27T20:28:21.879Z,13.13
2023-01-27T20:33:43.884Z,13.90
2023-01-27T20:39:05.682Z,17.33
2023-01-27T20:44:27.537Z,11.83
2023-01-27T20:49:50.409Z,13.50
2023-01-27T20:55:13.727Z,11.00
2023-01-27T21:00:35.622Z,12.80
2023-01-27T21:05:57.371Z,11.27
2023-01-27T21:11:21.246Z,15.17
2023-01-27T21:16:43.078Z,11.27
2023-01-27T21:22:04.869Z,10.33
2023-01-27T21:27:27.132Z,9.30
2023-01-27T21:32:49.007Z,12.23
2023-01-27T21:38:10.886Z,9.20
2023-01-27T21:43:55.987Z,10.90
2023-01-27T21:49:17.743Z,11.23
2023-01-27T21:54:39.671Z,10.10
2023-01-27T22:00:01.676Z,8.53
2023-01-27T22:05:24.630Z,9.20
2023-01-27T22:10:46.375Z,7.90
2023-01-27T22:16:13.922Z,7.23
2023-01-27T22:21:35.646Z,10.07
2023-01-27T22:26:57.381Z,8.93
2023-01-27T22:32:19.149Z,8.93
2023-01-27T22:37:41.999Z,10.10
2023-01-27T22:43:09.232Z,13.00
2023-01-27T22:48:31.066Z,13.53
2023-01-27T22:53:52.776Z,10.53
2023-01-27T22:59:14.677Z,11.17
2023-01-27T23:04:36.408Z,11.73
2023-01-27T23:09:58.209Z,7.87
2023-01-27T23:15:19.907Z,12.10
2023-01-27T23:20:42.411Z,12.60
2023-01-27T23:26:08.759Z,11.20
2023-01-27T23:31:30.605Z,7.77
2023-01-27T23:36:52.395Z,8.83
2023-01-27T23:42:15.353Z,8.67
2023-01-27T23:47:37.146Z,7.10
2023-01-27T23:52:58.892Z,8.30
2023-01-27T23:58:20.879Z,9.60
